createdAt,value
2019-02-04T00:00:31.170Z,9.33
2019-02-04T00:02:58.865Z,12.10
2019-02-04T00:05:26.338Z,6.40
2019-02-04T00:08:12.373Z,10.27
2019-02-04T00:10:59.391Z,7.57
2019-02-04T00:13:27.090Z,9.30
2019-02-04T00:15:54.560Z,12.00
2019-02-04T00:18:22.118Z,11.83
2019-02-04T00:20:50.435Z,7.27
2019-02-04T00:23:18.939Z,8.53
2019-02-04T00:25:46.708Z,6.93
2019-02-04T00:28:14.680Z,8.90
2019-02-04T00:30:42.407Z,10.90
2019-02-04T00:33:09.610Z,8.80
2019-02-04T00:35:37.208Z,13.13
2019-02-04T00:38:14.029Z,10.20
2019-02-04T00:40:41.681Z,12.23
2019-02-04T00:43:09.207Z,12.07
2019-02-04T00:45:36.826Z,8.30
2019-02-04T00:48:04.356Z,8.00
2019-02-04T00:50:31.869Z,7.03
2019-02-04T00:52:59.428Z,8.43
2019-02-04T00:55:27.298Z,9.97
2019-02-04T00:57:55.246Z,7.43
2019-02-04T01:00:26.748Z,9.83
2019-02-04T01:02:56.591Z,10.33
2019-02-04T01:05:25.338Z,10.17
2019-02-04T01:07:53.405Z,12.47
2019-02-04T01:10:23.019Z,8.90
2019-02-04T01:12:51.419Z,9.23
2019-02-04T01:15:19.676Z,11.50
2019-02-04T01:17:47.279Z,8.07
2019-02-04T01:20:20.722Z,10.60
2019-02-04T01:22:48.385Z,10.70
2019-02-04T01:25:16.082Z,12.43
2019-02-04T01:27:43.611Z,8.00
2019-02-04T01:30:11.493Z,10.80
2019-02-04T01:32:39.689Z,11.73
2019-02-04T01:35:07.442Z,7.83
2019-02-04T01:37:34.979Z,8.20
2019-02-04T01:40:04.069Z,12.53
2019-02-04T01:42:32.100Z,12.80
2019-02-04T01:44:59.576Z,11.80
2019-02-04T01:47:27.831Z,11.67
2019-02-04T01:49:55.217Z,10.50
2019-02-04T01:52:23.364Z,14.07
2019-02-04T01:54:50.855Z,9.90
2019-02-04T01:57:18.782Z,11.00
2019-02-04T01:59:46.475Z,12.00
2019-02-04T02:02:14.419Z,16.67
2019-02-04T02:04:41.837Z,13.90
2019-02-04T02:07:09.496Z,14.10
2019-02-04T02:09:36.950Z,13.40
2019-02-04T02:12:05.017Z,13.37
2019-02-04T02:14:32.519Z,15.43
2019-02-04T02:17:00.157Z,15.57
2019-02-04T02:19:27.386Z,12.30
2019-02-04T02:21:54.820Z,19.13
2019-02-04T02:24:22.397Z,12.97
2019-02-04T02:26:50.500Z,13.90
2019-02-04T02:29:17.890Z,12.97
2019-02-04T02:31:45.239Z,11.37
2019-02-04T02:34:13.088Z,16.20
2019-02-04T02:36:41.621Z,14.30
2019-02-04T02:39:09.537Z,11.70
2019-02-04T02:41:36.808Z,14.47
2019-02-04T02:44:05.208Z,13.20
2019-02-04T02:46:32.800Z,11.30
2019-02-04T02:49:00.613Z,11.80
2019-02-04T02:51:28.245Z,13.03
2019-02-04T02:53:55.557Z,11.77
2019-02-04T02:56:23.076Z,12.97
2019-02-04T02:58:50.982Z,10.77
2019-02-04T03:01:19.412Z,14.77
2019-02-04T03:03:47.076Z,13.73
2019-02-04T03:06:14.553Z,13.70
2019-02-04T03:08:42.418Z,11.63
2019-02-04T03:11:10.265Z,15.67
2019-02-04T03:13:37.720Z,13.63
2019-02-04T03:16:05.301Z,13.90
2019-02-04T03:18:33.076Z,11.13
2019-02-04T03:21:00.938Z,15.03
2019-02-04T03:23:28.254Z,13.60
2019-02-04T03:25:56.053Z,14.10
2019-02-04T03:28:23.462Z,14.97
2019-02-04T03:30:53.913Z,14.60
2019-02-04T03:33:24.102Z,20.37
2019-02-04T03:35:51.997Z,13.43
2019-02-04T03:38:19.491Z,13.67
2019-02-04T03:40:47.630Z,16.80
2019-02-04T03:43:15.187Z,13.33
2019-02-04T03:45:42.871Z,12.33
2019-02-04T03:48:10.922Z,13.83
2019-02-04T03:50:38.666Z,21.23
2019-02-04T03:53:06.429Z,14.17
2019-02-04T03:55:33.837Z,12.00
2019-02-04T03:58:01.874Z,14.13
2019-02-04T04:00:31.900Z,15.63
2019-02-04T04:02:59.957Z,16.80
2019-02-04T04:05:28.414Z,13.70
2019-02-04T04:07:55.857Z,21.30
2019-02-04T04:10:24.483Z,13.83
2019-02-04T04:12:53.511Z,15.07
2019-02-04T04:15:22.948Z,14.90
2019-02-04T04:17:51.127Z,12.10
2019-02-04T04:20:20.617Z,15.30
2019-02-04T04:22:48.517Z,12.57
2019-02-04T04:25:15.830Z,10.73
2019-02-04T04:27:44.665Z,13.97
2019-02-04T04:30:21.014Z,15.30
2019-02-04T04:32:48.813Z,13.77
2019-02-04T04:35:16.311Z,13.07
2019-02-04T04:37:44.054Z,11.80
2019-02-04T04:40:11.733Z,12.00
2019-02-04T04:42:39.517Z,12.50
2019-02-04T04:45:08.248Z,13.13
2019-02-04T04:47:36.502Z,14.10
2019-02-04T04:50:04.808Z,12.87
2019-02-04T04:52:32.536Z,12.00
2019-02-04T04:55:00.311Z,13.40
2019-02-04T04:57:27.810Z,11.57
2019-02-04T04:59:55.748Z,10.10
2019-02-04T05:02:24.170Z,15.97
2019-02-04T05:04:52.711Z,17.00
2019-02-04T05:07:20.541Z,14.47
2019-02-04T05:09:48.023Z,15.10
2019-02-04T05:12:15.528Z,11.43
2019-02-04T05:14:43.093Z,13.67
2019-02-04T05:17:11.941Z,13.97
2019-02-04T05:19:39.636Z,15.30
2019-02-04T05:22:07.286Z,13.10
2019-02-04T05:24:35.024Z,10.40
2019-02-04T05:27:02.477Z,11.50
2019-02-04T05:29:31.370Z,15.10
2019-02-04T05:32:00.017Z,14.43
2019-02-04T05:34:29.981Z,12.93
2019-02-04T05:36:57.842Z,11.43
2019-02-04T05:39:25.532Z,15.50
2019-02-04T05:41:53.224Z,13.53
2019-02-04T05:44:20.997Z,11.07
2019-02-04T05:46:48.655Z,14.10
2019-02-04T05:49:16.664Z,12.60
2019-02-04T05:51:45.123Z,12.00
2019-02-04T05:54:13.039Z,10.27
2019-02-04T05:56:40.728Z,9.47
2019-02-04T05:59:08.221Z,10.33
2019-02-04T06:01:35.571Z,9.33
2019-02-04T06:04:03.166Z,9.90
2019-02-04T06:06:31.015Z,10.10
2019-02-04T06:08:58.238Z,8.70
2019-02-04T06:11:26.281Z,10.23
2019-02-04T06:13:53.835Z,10.50
2019-02-04T06:16:22.282Z,8.80
2019-02-04T06:19:00.417Z,12.20
2019-02-04T06:21:20.759Z,10.80
2019-02-04T06:23:51.623Z,30.83
2019-02-04T06:26:19.876Z,150.50
2019-02-04T06:28:47.694Z,70.17
2019-02-04T06:31:15.296Z,33.10
2019-02-04T06:33:43.394Z,21.80
2019-02-04T06:36:11.319Z,13.90
2019-02-04T06:38:38.638Z,10.10
2019-02-04T06:41:06.766Z,10.20
2019-02-04T06:43:34.455Z,12.40
2019-02-04T06:46:02.235Z,11.93
2019-02-04T06:48:30.447Z,94.43
2019-02-04T06:50:58.576Z,93.90
2019-02-04T06:53:26.604Z,51.13
2019-02-04T06:55:54.150Z,26.37
2019-02-04T06:58:22.445Z,16.87
2019-02-04T07:00:50.116Z,13.83
2019-02-04T07:03:18.144Z,13.63
2019-02-04T07:05:45.705Z,10.73
2019-02-04T07:08:14.436Z,9.10
2019-02-04T07:10:42.129Z,9.77
2019-02-04T07:13:10.329Z,10.30
2019-02-04T07:15:38.510Z,10.97
2019-02-04T07:18:06.316Z,11.30
2019-02-04T07:20:33.998Z,11.93
2019-02-04T07:23:01.633Z,9.70
2019-02-04T07:25:29.632Z,8.47
2019-02-04T07:27:57.668Z,9.30
2019-02-04T07:30:26.065Z,9.13
2019-02-04T07:32:54.529Z,105.53
2019-02-04T07:35:22.554Z,102.53
2019-02-04T07:37:50.690Z,39.30
2019-02-04T07:40:23.624Z,21.00
2019-02-04T07:42:52.447Z,17.83
2019-02-04T07:45:20.528Z,14.17
2019-02-04T07:47:52.210Z,10.10
2019-02-04T07:50:20.030Z,8.33
2019-02-04T07:52:48.427Z,11.60
2019-02-04T07:55:16.277Z,87.50
2019-02-04T07:57:44.454Z,41.57
2019-02-04T08:00:15.232Z,22.63
2019-02-04T08:02:43.486Z,18.50
2019-02-04T08:05:11.813Z,14.50
2019-02-04T08:07:40.205Z,11.93
2019-02-04T08:10:09.386Z,14.57
2019-02-04T08:12:40.336Z,10.70
2019-02-04T08:15:12.003Z,15.10
2019-02-04T08:17:40.420Z,11.40
2019-02-04T08:20:08.473Z,11.93
2019-02-04T08:22:37.136Z,9.63
2019-02-04T08:25:05.846Z,8.93
2019-02-04T08:27:33.993Z,11.13
2019-02-04T08:30:02.592Z,11.60
2019-02-04T08:32:30.676Z,8.67
2019-02-04T08:35:00.186Z,9.03
2019-02-04T08:37:29.536Z,14.87
2019-02-04T08:39:58.319Z,9.10
2019-02-04T08:42:26.321Z,11.00
2019-02-04T08:44:54.488Z,8.77
2019-02-04T08:47:23.880Z,9.53
2019-02-04T08:49:58.364Z,9.33
2019-02-04T08:52:21.901Z,10.50
2019-02-04T08:54:49.962Z,11.00
2019-02-04T08:57:17.882Z,9.33
2019-02-04T08:59:45.892Z,11.73
2019-02-04T09:02:13.425Z,9.97
2019-02-04T09:04:41.338Z,9.73
2019-02-04T09:07:09.286Z,25.67
2019-02-04T09:09:37.141Z,34.90
2019-02-04T09:12:05.404Z,24.43
2019-02-04T09:14:33.384Z,14.90
2019-02-04T09:17:01.871Z,13.70
2019-02-04T09:19:29.974Z,9.57
2019-02-04T09:21:58.486Z,9.70
2019-02-04T09:24:26.297Z,8.63
2019-02-04T09:26:53.950Z,10.47
2019-02-04T09:29:22.131Z,11.87
2019-02-04T09:31:49.818Z,11.63
2019-02-04T09:34:17.757Z,12.50
2019-02-04T09:36:45.331Z,9.20
2019-02-04T09:39:13.803Z,9.20
2019-02-04T09:41:41.527Z,10.20
2019-02-04T09:44:09.213Z,8.93
2019-02-04T09:46:37.589Z,10.33
2019-02-04T09:49:05.797Z,9.77
2019-02-04T09:51:33.703Z,10.20
2019-02-04T09:54:02.668Z,8.57
2019-02-04T09:56:30.506Z,9.90
2019-02-04T09:58:58.918Z,11.07
2019-02-04T10:01:26.684Z,10.30
2019-02-04T10:03:54.518Z,10.80
2019-02-04T10:06:22.382Z,10.73
2019-02-04T10:08:49.792Z,11.90
2019-02-04T10:11:17.584Z,9.83
2019-02-04T10:13:45.827Z,10.43
2019-02-04T10:16:13.722Z,10.17
2019-02-04T10:18:41.725Z,11.07
2019-02-04T10:21:10.117Z,14.50
2019-02-04T10:23:38.114Z,11.83
2019-02-04T10:26:05.664Z,10.93
2019-02-04T10:28:33.595Z,11.77
2019-02-04T10:31:01.774Z,10.70
2019-02-04T10:33:30.252Z,14.13
2019-02-04T10:35:58.025Z,11.50
2019-02-04T10:38:25.478Z,12.47
2019-02-04T10:40:53.361Z,12.17
2019-02-04T10:43:20.968Z,11.20
2019-02-04T10:45:48.689Z,10.70
2019-02-04T10:48:16.695Z,10.30
2019-02-04T10:50:47.612Z,9.63
2019-02-04T10:53:16.586Z,14.67
2019-02-04T10:55:44.222Z,9.40
2019-02-04T10:58:12.830Z,12.80
2019-02-04T11:00:41.493Z,16.37
2019-02-04T11:03:09.618Z,10.53
2019-02-04T11:05:37.694Z,13.40
2019-02-04T11:08:06.788Z,15.93
2019-02-04T11:10:37.779Z,11.90
2019-02-04T11:13:10.726Z,13.67
2019-02-04T11:15:39.001Z,8.57
2019-02-04T11:18:07.282Z,10.67
2019-02-04T11:20:35.260Z,9.60
2019-02-04T11:23:03.636Z,10.47
2019-02-04T11:25:32.026Z,11.47
2019-02-04T11:27:59.678Z,8.83
2019-02-04T11:30:33.613Z,8.43
2019-02-04T11:33:01.952Z,11.53
2019-02-04T11:35:30.278Z,8.90
2019-02-04T11:37:58.172Z,9.60
2019-02-04T11:40:33.886Z,8.77
2019-02-04T11:43:01.702Z,10.57
2019-02-04T11:45:30.231Z,8.97
2019-02-04T11:47:59.389Z,8.60
2019-02-04T11:50:27.298Z,9.13
2019-02-04T11:52:55.257Z,7.73
2019-02-04T11:55:25.180Z,9.10
2019-02-04T11:57:52.970Z,10.37
2019-02-04T12:00:23.260Z,8.80
2019-02-04T12:02:51.739Z,7.10
2019-02-04T12:05:20.713Z,6.13
2019-02-04T12:07:48.548Z,8.97
2019-02-04T12:10:19.301Z,7.07
2019-02-04T12:12:47.102Z,7.30
2019-02-04T12:15:16.995Z,7.47
2019-02-04T12:17:46.952Z,5.13
2019-02-04T12:20:15.998Z,4.17
2019-02-04T12:22:44.720Z,5.50
2019-02-04T12:25:14.386Z,3.40
2019-02-04T12:27:42.395Z,5.33
2019-02-04T12:30:25.447Z,3.17
2019-02-04T12:32:54.345Z,4.87
2019-02-04T12:35:22.337Z,4.17
2019-02-04T12:37:50.764Z,3.70
2019-02-04T12:40:18.754Z,2.33
2019-02-04T12:42:46.590Z,3.40
2019-02-04T12:45:17.344Z,3.20
2019-02-04T12:47:45.239Z,3.30
2019-02-04T12:50:13.432Z,3.87
2019-02-04T12:52:41.317Z,2.60
2019-02-04T12:55:11.246Z,6.00
2019-02-04T12:57:39.213Z,20.30
2019-02-04T13:00:10.825Z,10.53
2019-02-04T13:02:38.522Z,7.57
2019-02-04T13:05:07.988Z,7.17
2019-02-04T13:07:35.601Z,3.80
2019-02-04T13:10:04.460Z,5.10
2019-02-04T13:12:32.091Z,3.20
2019-02-04T13:14:59.950Z,3.53
2019-02-04T13:17:27.794Z,3.67
2019-02-04T13:19:55.441Z,2.70
2019-02-04T13:22:23.007Z,3.53
2019-02-04T13:24:50.853Z,5.37
2019-02-04T13:27:18.548Z,3.47
2019-02-04T13:29:46.535Z,5.63
2019-02-04T13:32:14.183Z,4.87
2019-02-04T13:34:42.166Z,3.07
2019-02-04T13:37:09.742Z,3.70
2019-02-04T13:39:37.507Z,5.13
2019-02-04T13:42:05.493Z,4.70
2019-02-04T13:44:33.441Z,4.60
2019-02-04T13:47:01.286Z,3.77
2019-02-04T13:49:30.080Z,6.40
2019-02-04T13:51:58.083Z,3.73
2019-02-04T13:54:25.673Z,5.53
2019-02-04T13:56:53.953Z,10.90
2019-02-04T13:59:21.696Z,3.47
2019-02-04T14:01:49.229Z,4.20
2019-02-04T14:04:17.580Z,4.80
2019-02-04T14:06:45.718Z,42.07
2019-02-04T14:09:16.362Z,22.37
2019-02-04T14:11:44.074Z,12.53
2019-02-04T14:14:11.671Z,7.40
2019-02-04T14:16:39.279Z,5.90
2019-02-04T14:19:06.900Z,8.20
2019-02-04T14:21:34.377Z,7.83
2019-02-04T14:24:02.017Z,3.23
2019-02-04T14:26:29.883Z,3.43
2019-02-04T14:28:57.306Z,3.33
2019-02-04T14:31:25.096Z,5.03
2019-02-04T14:33:53.898Z,3.43
2019-02-04T14:36:21.901Z,5.47
2019-02-04T14:38:50.090Z,4.03
2019-02-04T14:41:18.130Z,4.40
2019-02-04T14:43:59.456Z,3.07
2019-02-04T14:46:49.988Z,3.60
2019-02-04T14:49:42.717Z,2.73
2019-02-04T14:52:24.535Z,4.30
2019-02-04T14:55:27.796Z,2.50
2019-02-04T14:58:33.984Z,3.70
2019-02-04T15:01:47.502Z,4.70
2019-02-04T15:04:57.064Z,3.30
2019-02-04T15:07:45.408Z,3.63
2019-02-04T15:10:36.991Z,4.13
2019-02-04T15:13:26.831Z,5.03
2019-02-04T15:16:35.138Z,4.90
2019-02-04T15:19:46.899Z,6.10
2019-02-04T15:22:40.323Z,5.20
2019-02-04T15:25:33.933Z,6.63
2019-02-04T15:28:52.749Z,3.53
2019-02-04T15:32:02.550Z,4.20
2019-02-04T15:35:08.550Z,2.70
2019-02-04T15:37:55.012Z,3.23
2019-02-04T15:40:50.134Z,4.47
2019-02-04T15:43:47.709Z,3.77
2019-02-04T15:46:37.486Z,4.20
2019-02-04T15:49:35.062Z,5.77
2019-02-04T15:52:03.524Z,4.67
2019-02-04T15:54:31.206Z,2.80
2019-02-04T15:56:58.826Z,2.87
2019-02-04T15:59:27.157Z,2.90
2019-02-04T16:01:55.170Z,3.60
2019-02-04T16:04:30.734Z,4.60
2019-02-04T16:06:58.175Z,4.10
2019-02-04T16:09:25.639Z,4.20
2019-02-04T16:11:53.838Z,6.83
2019-02-04T16:14:21.831Z,57.17
2019-02-04T16:16:50.094Z,50.97
2019-02-04T16:19:17.750Z,31.20
2019-02-04T16:21:45.455Z,14.33
2019-02-04T16:24:13.577Z,8.90
2019-02-04T16:26:41.756Z,12.50
2019-02-04T16:29:09.325Z,4.07
2019-02-04T16:31:37.402Z,3.13
2019-02-04T16:34:05.865Z,3.30
2019-02-04T16:36:34.552Z,2.43
2019-02-04T16:39:04.717Z,2.00
2019-02-04T16:41:32.643Z,2.93
2019-02-04T16:44:00.054Z,9.17
2019-02-04T16:46:28.173Z,24.57
2019-02-04T16:48:56.459Z,13.23
2019-02-04T16:51:24.174Z,6.70
2019-02-04T16:53:52.302Z,4.93
2019-02-04T16:56:20.101Z,3.87
2019-02-04T16:58:47.540Z,3.20
2019-02-04T17:01:15.068Z,2.17
2019-02-04T17:03:42.705Z,3.40
2019-02-04T17:06:10.643Z,2.23
2019-02-04T17:08:38.012Z,2.50
2019-02-04T17:11:05.785Z,2.07
2019-02-04T17:13:33.793Z,3.80
2019-02-04T17:16:01.607Z,2.50
2019-02-04T17:18:29.370Z,4.07
2019-02-04T17:20:57.022Z,3.37
2019-02-04T17:23:28.131Z,2.43
2019-02-04T17:25:59.522Z,3.20
2019-02-04T17:28:26.408Z,5.57
2019-02-04T17:30:56.026Z,3.23
2019-02-04T17:33:23.510Z,4.10
2019-02-04T17:35:51.095Z,10.20
2019-02-04T17:38:19.399Z,3.07
2019-02-04T17:40:47.789Z,2.63
2019-02-04T17:43:15.458Z,5.10
2019-02-04T17:45:43.212Z,5.83
2019-02-04T17:48:11.101Z,3.33
2019-02-04T17:50:39.266Z,5.33
2019-02-04T17:53:06.984Z,3.60
2019-02-04T17:55:34.828Z,6.13
2019-02-04T17:58:03.294Z,5.60
2019-02-04T18:00:37.187Z,23.20
2019-02-04T18:03:06.108Z,15.23
2019-02-04T18:05:34.135Z,11.37
2019-02-04T18:08:01.817Z,8.83
2019-02-04T18:10:31.000Z,5.83
2019-02-04T18:12:58.847Z,4.50
2019-02-04T18:15:26.480Z,4.40
2019-02-04T18:17:54.897Z,5.30
2019-02-04T18:20:23.284Z,3.50
2019-02-04T18:22:51.358Z,3.83
2019-02-04T18:25:19.249Z,4.20
2019-02-04T18:27:47.470Z,3.80
2019-02-04T18:30:16.941Z,3.43
2019-02-04T18:32:44.597Z,4.73
2019-02-04T18:35:12.372Z,4.40
2019-02-04T18:37:40.096Z,3.63
2019-02-04T18:40:09.093Z,4.30
2019-02-04T18:42:36.986Z,3.90
2019-02-04T18:45:07.867Z,3.63
2019-02-04T18:47:35.927Z,4.37
2019-02-04T18:50:05.049Z,3.33
2019-02-04T18:52:38.915Z,4.83
2019-02-04T18:55:08.305Z,7.37
2019-02-04T18:57:36.336Z,5.50
2019-02-04T19:00:05.021Z,5.70
2019-02-04T19:02:32.621Z,4.77
2019-02-04T19:05:00.344Z,4.70
2019-02-04T19:07:28.312Z,4.73
2019-02-04T19:09:56.996Z,3.50
2019-02-04T19:12:24.816Z,4.13
2019-02-04T19:14:54.685Z,5.20
2019-02-04T19:17:22.483Z,5.63
2019-02-04T19:19:51.226Z,4.77
2019-02-04T19:22:19.365Z,6.47
2019-02-04T19:24:47.677Z,4.30
2019-02-04T19:27:15.551Z,4.10
2019-02-04T19:29:43.413Z,5.20
2019-02-04T19:32:11.245Z,4.43
2019-02-04T19:34:39.210Z,5.73
2019-02-04T19:37:08.759Z,7.20
2019-02-04T19:39:36.791Z,4.60
2019-02-04T19:42:05.432Z,5.03
2019-02-04T19:44:36.412Z,3.43
2019-02-04T19:47:04.801Z,6.17
2019-02-04T19:49:33.281Z,5.13
2019-02-04T19:52:00.797Z,4.60
2019-02-04T19:54:28.483Z,32.13
2019-02-04T19:56:57.797Z,17.67
2019-02-04T19:59:27.256Z,11.17
2019-02-04T20:01:55.323Z,9.77
2019-02-04T20:04:23.094Z,9.07
2019-02-04T20:06:52.623Z,4.20
2019-02-04T20:09:21.277Z,9.83
2019-02-04T20:11:49.273Z,4.37
2019-02-04T20:14:18.030Z,3.50
2019-02-04T20:16:46.466Z,3.70
2019-02-04T20:19:15.521Z,4.20
2019-02-04T20:21:45.670Z,7.60
2019-02-04T20:24:15.229Z,3.53
2019-02-04T20:26:43.038Z,2.57
2019-02-04T20:29:11.664Z,7.80
2019-02-04T20:31:39.130Z,3.30
2019-02-04T20:34:06.576Z,4.60
2019-02-04T20:36:34.750Z,3.47
2019-02-04T20:39:06.494Z,3.70
2019-02-04T20:41:34.364Z,3.37
2019-02-04T20:44:02.045Z,5.33
2019-02-04T20:46:30.031Z,3.77
2019-02-04T20:48:57.936Z,5.87
2019-02-04T20:51:25.516Z,5.23
2019-02-04T20:53:52.910Z,3.10
2019-02-04T20:56:21.063Z,2.87
2019-02-04T20:58:48.699Z,3.10
2019-02-04T21:01:16.169Z,7.37
2019-02-04T21:03:44.691Z,1.80
2019-02-04T21:06:12.820Z,2.63
2019-02-04T21:08:40.729Z,2.50
2019-02-04T21:11:09.555Z,3.57
2019-02-04T21:13:37.562Z,2.87
2019-02-04T21:16:07.850Z,2.70
2019-02-04T21:18:36.044Z,2.30
2019-02-04T21:21:04.029Z,2.23
2019-02-04T21:23:32.143Z,2.30
2019-02-04T21:26:00.458Z,2.10
2019-02-04T21:28:27.973Z,2.50
2019-02-04T21:30:55.781Z,4.20
2019-02-04T21:33:23.799Z,2.83
2019-02-04T21:35:52.423Z,2.13
2019-02-04T21:38:20.080Z,2.70
2019-02-04T21:40:47.557Z,22.30
2019-02-04T21:43:15.631Z,8.70
2019-02-04T21:45:43.587Z,3.70
2019-02-04T21:48:11.423Z,3.57
2019-02-04T21:50:41.531Z,3.67
2019-02-04T21:53:09.293Z,2.40
2019-02-04T21:55:36.926Z,3.70
2019-02-04T21:58:05.483Z,2.10
2019-02-04T22:00:37.621Z,5.50
2019-02-04T22:03:05.272Z,2.73
2019-02-04T22:05:33.611Z,5.43
2019-02-04T22:08:01.657Z,3.70
2019-02-04T22:10:29.188Z,2.40
2019-02-04T22:12:57.038Z,2.40
2019-02-04T22:15:25.008Z,3.97
2019-02-04T22:17:52.611Z,2.93
2019-02-04T22:20:20.225Z,3.67
2019-02-04T22:22:48.098Z,2.33
2019-02-04T22:25:19.797Z,2.27
2019-02-04T22:27:46.628Z,2.83
2019-02-04T22:30:17.009Z,3.43
2019-02-04T22:32:45.166Z,2.33
2019-02-04T22:35:13.707Z,3.00
2019-02-04T22:37:42.427Z,3.50
2019-02-04T22:40:15.982Z,5.77
2019-02-04T22:42:43.569Z,2.20
2019-02-04T22:45:11.965Z,2.60
2019-02-04T22:47:39.878Z,3.30
2019-02-04T22:50:11.319Z,2.03
2019-02-04T22:52:39.069Z,3.47
2019-02-04T22:55:07.317Z,2.27
2019-02-04T22:57:35.203Z,2.30
2019-02-04T23:00:10.996Z,3.40
2019-02-04T23:02:38.595Z,2.70
2019-02-04T23:05:06.293Z,3.70
2019-02-04T23:07:34.171Z,2.37
2019-02-04T23:10:01.812Z,3.53
2019-02-04T23:12:29.454Z,4.50
2019-02-04T23:14:56.762Z,1.80
2019-02-04T23:17:24.323Z,3.67
2019-02-04T23:19:52.239Z,2.47
2019-02-04T23:22:20.403Z,3.40
2019-02-04T23:24:48.008Z,3.13
2019-02-04T23:27:16.154Z,4.53
2019-02-04T23:29:43.994Z,6.77
2019-02-04T23:32:11.567Z,2.90
2019-02-04T23:34:39.001Z,2.47
2019-02-04T23:37:06.676Z,2.00
2019-02-04T23:39:34.490Z,2.03
2019-02-04T23:42:02.227Z,1.93
2019-02-04T23:44:33.361Z,3.20
2019-02-04T23:47:00.889Z,2.93
2019-02-04T23:49:28.373Z,2.73
2019-02-04T23:51:55.769Z,2.30
2019-02-04T23:54:23.291Z,2.33
2019-02-04T23:56:50.618Z,2.50
2019-02-04T23:59:18.238Z,5.07
